sensor_id;sensor_type;location;lat;lon;timestamp;P1;P2;P0
69222;PMS7003;56514;51.816;-0.026;2022-12-16T00:02:35;3.50;3.50;3.50
69222;PMS7003;56514;51.816;-0.026;2022-12-16T00:05:44;4.50;3.00;3.00
69222;PMS7003;56514;51.816;-0.026;2022-12-16T00:08:57;2.75;2.75;2.50
69222;PMS7003;56514;51.816;-0.026;2022-12-16T00:12:07;3.00;3.00;3.00
69222;PMS7003;56514;51.816;-0.026;2022-12-16T00:15:16;4.50;3.25;3.00
69222;PMS7003;56514;51.816;-0.026;2022-12-16T00:18:26;3.75;3.75;3.50
69222;PMS7003;56514;51.816;-0.026;2022-12-16T00:21:35;4.50;4.50;3.50
69222;PMS7003;56514;51.816;-0.026;2022-12-16T00:24:45;4.00;4.00;4.00
69222;PMS7003;56514;51.816;-0.026;2022-12-16T00:27:54;3.75;3.75;3.25
69222;PMS7003;56514;51.816;-0.026;2022-12-16T00:31:03;4.00;4.00;3.00
69222;PMS7003;56514;51.816;-0.026;2022-12-16T00:33:48;5.50;4.00;3.00
69222;PMS7003;56514;51.816;-0.026;2022-12-16T00:36:33;3.25;3.25;3.00
69222;PMS7003;56514;51.816;-0.026;2022-12-16T00:39:18;6.00;6.00;4.00
69222;PMS7003;56514;51.816;-0.026;2022-12-16T00:42:03;2.00;2.00;1.50
69222;PMS7003;56514;51.816;-0.026;2022-12-16T00:44:48;3.50;3.50;3.50
69222;PMS7003;56514;51.816;-0.026;2022-12-16T00:47:33;3.00;3.00;3.00
69222;PMS7003;56514;51.816;-0.026;2022-12-16T00:50:18;3.25;3.25;3.00
69222;PMS7003;56514;51.816;-0.026;2022-12-16T00:53:04;3.25;1.50;1.00
69222;PMS7003;56514;51.816;-0.026;2022-12-16T00:55:50;1.25;0.75;0.75
69222;PMS7003;56514;51.816;-0.026;2022-12-16T00:58:36;5.50;3.75;1.00
69222;PMS7003;56514;51.816;-0.026;2022-12-16T01:01:21;1.00;1.00;1.00
69222;PMS7003;56514;51.816;-0.026;2022-12-16T01:04:06;4.00;4.00;4.00
69222;PMS7003;56514;51.816;-0.026;2022-12-16T01:06:51;3.75;3.75;3.50
69222;PMS7003;56514;51.816;-0.026;2022-12-16T01:09:36;3.00;3.00;2.00
69222;PMS7003;56514;51.816;-0.026;2022-12-16T01:12:20;3.75;3.75;3.50
69222;PMS7003;56514;51.816;-0.026;2022-12-16T01:15:06;3.50;3.50;3.00
69222;PMS7003;56514;51.816;-0.026;2022-12-16T01:17:51;3.25;3.25;3.00
69222;PMS7003;56514;51.816;-0.026;2022-12-16T01:20:36;5.00;5.00;4.00
69222;PMS7003;56514;51.816;-0.026;2022-12-16T01:23:22;6.00;6.00;4.50
69222;PMS7003;56514;51.816;-0.026;2022-12-16T01:26:08;5.75;4.25;2.75
69222;PMS7003;56514;51.816;-0.026;2022-12-16T01:28:59;4.00;4.00;3.25
69222;PMS7003;56514;51.816;-0.026;2022-12-16T01:31:44;1.50;1.50;1.00
69222;PMS7003;56514;51.816;-0.026;2022-12-16T01:34:29;5.50;5.50;3.25
69222;PMS7003;56514;51.816;-0.026;2022-12-16T01:37:13;5.00;5.00;3.50
69222;PMS7003;56514;51.816;-0.026;2022-12-16T01:39:58;3.75;3.75;3.50
69222;PMS7003;56514;51.816;-0.026;2022-12-16T01:42:43;6.00;6.00;4.00
69222;PMS7003;56514;51.816;-0.026;2022-12-16T01:45:30;2.00;2.00;1.00
69222;PMS7003;56514;51.816;-0.026;2022-12-16T01:48:21;3.00;3.00;2.00
69222;PMS7003;56514;51.816;-0.026;2022-12-16T01:51:19;3.00;3.00;3.00
69222;PMS7003;56514;51.816;-0.026;2022-12-16T01:54:28;3.00;3.00;3.00
69222;PMS7003;56514;51.816;-0.026;2022-12-16T01:57:25;3.50;3.50;2.50
69222;PMS7003;56514;51.816;-0.026;2022-12-16T02:00:15;6.00;6.00;4.00
69222;PMS7003;56514;51.816;-0.026;2022-12-16T02:03:01;4.00;4.00;3.75
69222;PMS7003;56514;51.816;-0.026;2022-12-16T02:05:47;4.00;4.00;3.00
69222;PMS7003;56514;51.816;-0.026;2022-12-16T02:08:34;5.50;5.50;4.50
69222;PMS7003;56514;51.816;-0.026;2022-12-16T02:17:19;7.00;5.00;5.00
69222;PMS7003;56514;51.816;-0.026;2022-12-16T02:20:18;0.75;0.75;0.00
69222;PMS7003;56514;51.816;-0.026;2022-12-16T02:32:42;4.50;4.50;3.25
69222;PMS7003;56514;51.816;-0.026;2022-12-16T02:35:38;2.00;2.00;2.00
69222;PMS7003;56514;51.816;-0.026;2022-12-16T02:41:26;4.50;4.50;3.25
69222;PMS7003;56514;51.816;-0.026;2022-12-16T02:44:26;3.25;3.25;2.00
69222;PMS7003;56514;51.816;-0.026;2022-12-16T02:47:35;4.00;4.00;3.00
69222;PMS7003;56514;51.816;-0.026;2022-12-16T02:50:27;7.25;5.50;4.00
69222;PMS7003;56514;51.816;-0.026;2022-12-16T02:53:17;4.50;4.50;4.25
69222;PMS7003;56514;51.816;-0.026;2022-12-16T02:59:05;6.50;6.50;6.00
69222;PMS7003;56514;51.816;-0.026;2022-12-16T03:03:16;6.75;6.75;5.50
69222;PMS7003;56514;51.816;-0.026;2022-12-16T03:05:37;6.50;4.50;4.00
69222;PMS7003;56514;51.816;-0.026;2022-12-16T03:08:31;4.00;4.00;4.00
69222;PMS7003;56514;51.816;-0.026;2022-12-16T03:11:21;5.25;5.25;4.50
69222;PMS7003;56514;51.816;-0.026;2022-12-16T03:14:09;7.25;5.75;3.25
69222;PMS7003;56514;51.816;-0.026;2022-12-16T03:16:58;4.00;4.00;3.75
69222;PMS7003;56514;51.816;-0.026;2022-12-16T03:19:44;3.00;3.00;3.00
69222;PMS7003;56514;51.816;-0.026;2022-12-16T03:22:36;5.75;5.75;4.25
69222;PMS7003;56514;51.816;-0.026;2022-12-16T03:25:25;6.00;6.00;4.00
69222;PMS7003;56514;51.816;-0.026;2022-12-16T03:31:42;8.50;8.50;6.00
69222;PMS7003;56514;51.816;-0.026;2022-12-16T03:37:26;12.50;12.50;9.50
69222;PMS7003;56514;51.816;-0.026;2022-12-16T03:40:16;6.00;6.00;5.50
69222;PMS7003;56514;51.816;-0.026;2022-12-16T03:43:02;5.75;5.75;5.50
69222;PMS7003;56514;51.816;-0.026;2022-12-16T03:45:50;3.75;3.75;3.00
69222;PMS7003;56514;51.816;-0.026;2022-12-16T03:48:43;4.00;4.00;4.00
69222;PMS7003;56514;51.816;-0.026;2022-12-16T03:51:29;7.00;7.00;6.50
69222;PMS7003;56514;51.816;-0.026;2022-12-16T03:54:15;6.00;6.00;5.00
69222;PMS7003;56514;51.816;-0.026;2022-12-16T03:56:59;8.50;8.50;7.50
69222;PMS7003;56514;51.816;-0.026;2022-12-16T03:59:45;3.50;3.50;3.50
69222;PMS7003;56514;51.816;-0.026;2022-12-16T04:02:29;4.00;4.00;4.00
69222;PMS7003;56514;51.816;-0.026;2022-12-16T04:05:14;5.00;5.00;4.00
69222;PMS7003;56514;51.816;-0.026;2022-12-16T04:07:59;7.00;7.00;6.00
69222;PMS7003;56514;51.816;-0.026;2022-12-16T04:10:44;6.00;6.00;5.50
69222;PMS7003;56514;51.816;-0.026;2022-12-16T04:13:48;3.25;3.25;3.00
69222;PMS7003;56514;51.816;-0.026;2022-12-16T04:16:52;4.50;4.50;4.25
69222;PMS7003;56514;51.816;-0.026;2022-12-16T04:19:56;8.25;6.50;5.00
69222;PMS7003;56514;51.816;-0.026;2022-12-16T04:23:00;6.50;6.50;5.00
69222;PMS7003;56514;51.816;-0.026;2022-12-16T04:26:05;10.25;8.25;8.00
69222;PMS7003;56514;51.816;-0.026;2022-12-16T04:28:50;6.75;6.75;6.00
69222;PMS7003;56514;51.816;-0.026;2022-12-16T04:31:35;6.00;6.00;4.00
69222;PMS7003;56514;51.816;-0.026;2022-12-16T04:34:20;9.00;9.00;6.00
69222;PMS7003;56514;51.816;-0.026;2022-12-16T04:37:09;4.50;4.50;4.50
69222;PMS7003;56514;51.816;-0.026;2022-12-16T04:40:12;5.50;5.00;4.00
69222;PMS7003;56514;51.816;-0.026;2022-12-16T04:43:16;4.00;4.00;3.00
69222;PMS7003;56514;51.816;-0.026;2022-12-16T04:46:20;3.25;2.00;1.50
69222;PMS7003;56514;51.816;-0.026;2022-12-16T04:49:24;9.50;8.00;6.25
69222;PMS7003;56514;51.816;-0.026;2022-12-16T04:52:27;6.00;6.00;4.00
69222;PMS7003;56514;51.816;-0.026;2022-12-16T04:55:31;5.50;5.50;3.50
69222;PMS7003;56514;51.816;-0.026;2022-12-16T04:58:35;3.00;3.00;3.00
69222;PMS7003;56514;51.816;-0.026;2022-12-16T05:01:40;3.25;3.25;3.25
69222;PMS7003;56514;51.816;-0.026;2022-12-16T05:04:43;3.00;3.00;2.50
69222;PMS7003;56514;51.816;-0.026;2022-12-16T05:07:47;3.25;3.25;3.00
69222;PMS7003;56514;51.816;-0.026;2022-12-16T05:11:07;2.50;2.50;2.50
69222;PMS7003;56514;51.816;-0.026;2022-12-16T05:14:11;1.00;1.00;1.00
69222;PMS7003;56514;51.816;-0.026;2022-12-16T05:17:15;3.25;3.25;3.00
69222;PMS7003;56514;51.816;-0.026;2022-12-16T05:20:18;6.50;6.25;4.00
69222;PMS7003;56514;51.816;-0.026;2022-12-16T05:23:22;8.00;8.00;5.50
69222;PMS7003;56514;51.816;-0.026;2022-12-16T05:26:26;6.50;6.50;6.00
69222;PMS7003;56514;51.816;-0.026;2022-12-16T05:29:29;4.00;4.00;4.00
69222;PMS7003;56514;51.816;-0.026;2022-12-16T05:32:35;3.25;3.25;2.00
69222;PMS7003;56514;51.816;-0.026;2022-12-16T05:35:39;6.75;6.75;5.50
69222;PMS7003;56514;51.816;-0.026;2022-12-16T05:38:42;5.50;5.50;5.00
69222;PMS7003;56514;51.816;-0.026;2022-12-16T05:41:46;6.00;6.00;5.00
69222;PMS7003;56514;51.816;-0.026;2022-12-16T05:44:49;5.00;5.00;4.00
69222;PMS7003;56514;51.816;-0.026;2022-12-16T05:47:53;7.00;7.00;4.00
69222;PMS7003;56514;51.816;-0.026;2022-12-16T05:50:57;7.75;7.75;6.75
69222;PMS7003;56514;51.816;-0.026;2022-12-16T05:54:01;12.00;10.00;6.00
69222;PMS7003;56514;51.816;-0.026;2022-12-16T05:57:04;5.00;5.00;3.50
69222;PMS7003;56514;51.816;-0.026;2022-12-16T06:00:08;3.25;3.25;3.25
69222;PMS7003;56514;51.816;-0.026;2022-12-16T06:03:13;7.00;7.00;5.00
69222;PMS7003;56514;51.816;-0.026;2022-12-16T06:06:17;8.00;6.50;5.75
69222;PMS7003;56514;51.816;-0.026;2022-12-16T06:09:20;9.25;9.25;9.00
69222;PMS7003;56514;51.816;-0.026;2022-12-16T06:12:24;8.50;8.50;6.25
69222;PMS7003;56514;51.816;-0.026;2022-12-16T06:15:28;4.50;4.50;4.00
69222;PMS7003;56514;51.816;-0.026;2022-12-16T06:18:32;9.25;9.25;7.50
69222;PMS7003;56514;51.816;-0.026;2022-12-16T06:21:35;8.00;8.00;6.25
69222;PMS7003;56514;51.816;-0.026;2022-12-16T06:24:40;12.25;9.00;7.00
69222;PMS7003;56514;51.816;-0.026;2022-12-16T06:27:48;8.25;8.25;7.75
69222;PMS7003;56514;51.816;-0.026;2022-12-16T06:30:55;12.00;9.00;7.00
69222;PMS7003;56514;51.816;-0.026;2022-12-16T06:33:59;9.75;6.75;6.00
69222;PMS7003;56514;51.816;-0.026;2022-12-16T06:37:03;8.50;4.50;3.25
69222;PMS7003;56514;51.816;-0.026;2022-12-16T06:40:07;7.00;7.00;5.50
69222;PMS7003;56514;51.816;-0.026;2022-12-16T06:43:32;10.25;9.00;7.00
69222;PMS7003;56514;51.816;-0.026;2022-12-16T06:46:36;9.25;7.00;6.50
69222;PMS7003;56514;51.816;-0.026;2022-12-16T06:49:39;12.50;12.50;9.00
69222;PMS7003;56514;51.816;-0.026;2022-12-16T06:52:43;8.75;7.25;6.25
69222;PMS7003;56514;51.816;-0.026;2022-12-16T06:55:47;6.50;6.50;4.50
69222;PMS7003;56514;51.816;-0.026;2022-12-16T06:58:50;8.00;7.00;5.00
69222;PMS7003;56514;51.816;-0.026;2022-12-16T07:01:57;7.25;7.25;6.00
69222;PMS7003;56514;51.816;-0.026;2022-12-16T07:05:01;12.00;10.00;8.00
69222;PMS7003;56514;51.816;-0.026;2022-12-16T07:08:05;11.50;11.50;8.50
69222;PMS7003;56514;51.816;-0.026;2022-12-16T07:11:08;6.25;6.25;6.25
69222;PMS7003;56514;51.816;-0.026;2022-12-16T07:14:12;8.50;8.50;7.00
69222;PMS7003;56514;51.816;-0.026;2022-12-16T07:17:16;4.00;3.00;2.50
69222;PMS7003;56514;51.816;-0.026;2022-12-16T07:20:19;12.50;12.50;9.25
69222;PMS7003;56514;51.816;-0.026;2022-12-16T07:23:23;8.75;7.00;6.00
69222;PMS7003;56514;51.816;-0.026;2022-12-16T07:26:27;10.25;10.00;7.50
69222;PMS7003;56514;51.816;-0.026;2022-12-16T07:29:30;10.50;10.50;8.75
69222;PMS7003;56514;51.816;-0.026;2022-12-16T07:32:34;12.50;10.50;7.00
69222;PMS7003;56514;51.816;-0.026;2022-12-16T07:35:40;10.00;10.00;8.00
69222;PMS7003;56514;51.816;-0.026;2022-12-16T07:38:45;12.00;12.00;9.00
69222;PMS7003;56514;51.816;-0.026;2022-12-16T07:41:49;5.50;5.50;3.75
69222;PMS7003;56514;51.816;-0.026;2022-12-16T07:44:52;7.00;7.00;5.00
69222;PMS7003;56514;51.816;-0.026;2022-12-16T07:47:56;7.00;7.00;6.50
69222;PMS7003;56514;51.816;-0.026;2022-12-16T07:51:00;5.75;4.50;3.25
69222;PMS7003;56514;51.816;-0.026;2022-12-16T07:54:04;7.00;6.50;4.00
69222;PMS7003;56514;51.816;-0.026;2022-12-16T07:57:07;6.50;6.50;6.00
69222;PMS7003;56514;51.816;-0.026;2022-12-16T08:00:11;8.25;8.25;6.50
69222;PMS7003;56514;51.816;-0.026;2022-12-16T08:03:15;9.25;8.00;6.25
69222;PMS7003;56514;51.816;-0.026;2022-12-16T08:06:19;12.00;8.50;7.50
69222;PMS7003;56514;51.816;-0.026;2022-12-16T08:09:23;7.00;5.50;3.50
69222;PMS7003;56514;51.816;-0.026;2022-12-16T08:12:27;8.00;8.00;6.75
69222;PMS7003;56514;51.816;-0.026;2022-12-16T08:15:31;10.00;8.50;6.25
69222;PMS7003;56514;51.816;-0.026;2022-12-16T08:18:35;9.75;9.75;7.00
69222;PMS7003;56514;51.816;-0.026;2022-12-16T08:21:42;14.00;12.50;10.00
69222;PMS7003;56514;51.816;-0.026;2022-12-16T08:24:46;12.00;12.00;10.00
69222;PMS7003;56514;51.816;-0.026;2022-12-16T08:27:56;11.00;9.75;8.50
69222;PMS7003;56514;51.816;-0.026;2022-12-16T08:31:00;9.75;8.50;4.00
69222;PMS7003;56514;51.816;-0.026;2022-12-16T08:34:04;9.00;9.00;6.50
69222;PMS7003;56514;51.816;-0.026;2022-12-16T08:37:08;9.00;9.00;6.25
69222;PMS7003;56514;51.816;-0.026;2022-12-16T08:40:12;11.50;11.50;9.75
69222;PMS7003;56514;51.816;-0.026;2022-12-16T08:43:16;10.00;10.00;8.50
69222;PMS7003;56514;51.816;-0.026;2022-12-16T08:46:19;12.75;11.50;8.75
69222;PMS7003;56514;51.816;-0.026;2022-12-16T08:49:23;5.75;5.75;5.00
69222;PMS7003;56514;51.816;-0.026;2022-12-16T08:52:27;9.75;9.75;9.00
69222;PMS7003;56514;51.816;-0.026;2022-12-16T08:55:38;13.00;11.50;9.00
69222;PMS7003;56514;51.816;-0.026;2022-12-16T08:58:42;8.00;8.00;6.75
69222;PMS7003;56514;51.816;-0.026;2022-12-16T09:01:45;9.00;9.00;7.25
69222;PMS7003;56514;51.816;-0.026;2022-12-16T09:04:49;14.00;12.50;7.00
69222;PMS7003;56514;51.816;-0.026;2022-12-16T09:07:57;8.25;8.25;6.50
69222;PMS7003;56514;51.816;-0.026;2022-12-16T09:11:04;9.25;9.25;7.50
69222;PMS7003;56514;51.816;-0.026;2022-12-16T09:14:07;13.50;13.25;10.00
69222;PMS7003;56514;51.816;-0.026;2022-12-16T09:17:11;12.75;12.75;8.75
69222;PMS7003;56514;51.816;-0.026;2022-12-16T09:20:16;12.25;12.00;9.75
69222;PMS7003;56514;51.816;-0.026;2022-12-16T09:23:19;12.50;12.00;9.75
69222;PMS7003;56514;51.816;-0.026;2022-12-16T09:26:26;9.75;9.75;8.50
69222;PMS7003;56514;51.816;-0.026;2022-12-16T09:29:35;1.50;1.50;0.00
69222;PMS7003;56514;51.816;-0.026;2022-12-16T09:32:43;14.00;14.00;9.50
69222;PMS7003;56514;51.816;-0.026;2022-12-16T09:35:47;12.00;11.25;9.00
69222;PMS7003;56514;51.816;-0.026;2022-12-16T09:38:51;15.50;13.00;10.00
69222;PMS7003;56514;51.816;-0.026;2022-12-16T09:52:40;15.25;15.25;11.50
69222;PMS7003;56514;51.816;-0.026;2022-12-16T09:55:55;20.25;17.25;11.00
69222;PMS7003;56514;51.816;-0.026;2022-12-16T09:59:00;9.75;9.75;7.00
69222;PMS7003;56514;51.816;-0.026;2022-12-16T10:02:11;10.00;10.00;8.00
69222;PMS7003;56514;51.816;-0.026;2022-12-16T10:05:18;24.25;18.25;10.00
69222;PMS7003;56514;51.816;-0.026;2022-12-16T10:08:40;17.00;14.50;11.00
69222;PMS7003;56514;51.816;-0.026;2022-12-16T10:12:07;20.00;20.00;12.75
69222;PMS7003;56514;51.816;-0.026;2022-12-16T10:21:53;18.00;18.00;12.25
69222;PMS7003;56514;51.816;-0.026;2022-12-16T10:31:21;20.00;18.50;14.75
69222;PMS7003;56514;51.816;-0.026;2022-12-16T10:34:28;18.50;16.75;13.00
69222;PMS7003;56514;51.816;-0.026;2022-12-16T10:37:37;24.00;22.25;15.00
69222;PMS7003;56514;51.816;-0.026;2022-12-16T10:40:42;22.50;20.50;14.75
69222;PMS7003;56514;51.816;-0.026;2022-12-16T10:43:47;22.75;21.00;16.50
69222;PMS7003;56514;51.816;-0.026;2022-12-16T10:46:52;20.50;18.75;15.00
69222;PMS7003;56514;51.816;-0.026;2022-12-16T10:49:55;21.50;19.50;14.00
69222;PMS7003;56514;51.816;-0.026;2022-12-16T10:53:01;24.75;20.50;16.00
69222;PMS7003;56514;51.816;-0.026;2022-12-16T10:56:29;16.25;16.25;14.50
69222;PMS7003;56514;51.816;-0.026;2022-12-16T10:59:49;16.25;14.75;11.75
69222;PMS7003;56514;51.816;-0.026;2022-12-16T11:02:53;22.75;18.25;15.00
69222;PMS7003;56514;51.816;-0.026;2022-12-16T11:06:12;21.25;18.75;13.25
69222;PMS7003;56514;51.816;-0.026;2022-12-16T11:09:41;21.00;20.00;15.75
69222;PMS7003;56514;51.816;-0.026;2022-12-16T11:12:45;21.00;19.50;15.00
69222;PMS7003;56514;51.816;-0.026;2022-12-16T11:15:50;27.00;26.50;16.50
69222;PMS7003;56514;51.816;-0.026;2022-12-16T11:22:22;20.00;18.50;15.50
69222;PMS7003;56514;51.816;-0.026;2022-12-16T11:25:26;34.00;25.75;20.00
69222;PMS7003;56514;51.816;-0.026;2022-12-16T11:28:30;23.00;23.00;15.75
69222;PMS7003;56514;51.816;-0.026;2022-12-16T11:31:38;32.50;23.00;15.25
69222;PMS7003;56514;51.816;-0.026;2022-12-16T11:34:42;26.75;26.50;16.00
69222;PMS7003;56514;51.816;-0.026;2022-12-16T11:37:51;20.50;20.50;15.00
69222;PMS7003;56514;51.816;-0.026;2022-12-16T11:40:57;23.75;23.75;16.75
69222;PMS7003;56514;51.816;-0.026;2022-12-16T11:44:01;24.25;21.50;16.00
69222;PMS7003;56514;51.816;-0.026;2022-12-16T11:47:14;24.50;23.00;16.25
69222;PMS7003;56514;51.816;-0.026;2022-12-16T11:50:26;19.50;18.75;15.50
69222;PMS7003;56514;51.816;-0.026;2022-12-16T11:57:13;24.50;23.75;18.50
69222;PMS7003;56514;51.816;-0.026;2022-12-16T12:00:25;25.25;23.75;18.00
69222;PMS7003;56514;51.816;-0.026;2022-12-16T12:03:28;24.25;24.25;17.00
69222;PMS7003;56514;51.816;-0.026;2022-12-16T12:07:04;22.00;20.25;15.50
69222;PMS7003;56514;51.816;-0.026;2022-12-16T12:20:49;25.75;23.75;14.50
69222;PMS7003;56514;51.816;-0.026;2022-12-16T12:24:04;27.00;24.00;15.00
69222;PMS7003;56514;51.816;-0.026;2022-12-16T12:31:30;27.00;22.50;15.25
69222;PMS7003;56514;51.816;-0.026;2022-12-16T12:34:38;25.00;22.75;16.00
69222;PMS7003;56514;51.816;-0.026;2022-12-16T12:37:57;27.50;22.75;18.25
69222;PMS7003;56514;51.816;-0.026;2022-12-16T12:41:16;24.50;24.50;19.00
69222;PMS7003;56514;51.816;-0.026;2022-12-16T12:44:35;25.75;25.50;18.50
69222;PMS7003;56514;51.816;-0.026;2022-12-16T12:47:49;24.75;24.00;17.00
69222;PMS7003;56514;51.816;-0.026;2022-12-16T12:51:06;24.25;22.50;13.00
69222;PMS7003;56514;51.816;-0.026;2022-12-16T12:57:38;26.25;21.50;14.75
69222;PMS7003;56514;51.816;-0.026;2022-12-16T13:00:46;24.50;22.50;15.75
69222;PMS7003;56514;51.816;-0.026;2022-12-16T13:03:57;30.75;27.00;17.00
69222;PMS7003;56514;51.816;-0.026;2022-12-16T13:07:08;27.50;23.50;17.75
69222;PMS7003;56514;51.816;-0.026;2022-12-16T13:19:51;21.00;20.33;15.00
69222;PMS7003;56514;51.816;-0.026;2022-12-16T13:22:56;26.00;20.00;14.67
69222;PMS7003;56514;51.816;-0.026;2022-12-16T13:26:03;27.50;27.50;21.25
69222;PMS7003;56514;51.816;-0.026;2022-12-16T13:32:49;16.33;15.00;11.33
69222;PMS7003;56514;51.816;-0.026;2022-12-16T13:35:57;13.33;13.33;10.67
69222;PMS7003;56514;51.816;-0.026;2022-12-16T13:39:18;17.00;17.00;14.00
69222;PMS7003;56514;51.816;-0.026;2022-12-16T13:42:59;20.25;20.25;15.75
69222;PMS7003;56514;51.816;-0.026;2022-12-16T13:52:56;20.50;20.50;15.75
69222;PMS7003;56514;51.816;-0.026;2022-12-16T13:56:03;15.75;15.75;13.25
69222;PMS7003;56514;51.816;-0.026;2022-12-16T13:59:16;12.50;12.50;10.50
69222;PMS7003;56514;51.816;-0.026;2022-12-16T14:02:39;18.00;18.00;14.50
69222;PMS7003;56514;51.816;-0.026;2022-12-16T14:05:46;13.00;13.00;11.75
69222;PMS7003;56514;51.816;-0.026;2022-12-16T14:08:50;14.00;14.00;12.50
69222;PMS7003;56514;51.816;-0.026;2022-12-16T14:12:01;16.50;14.75;13.25
69222;PMS7003;56514;51.816;-0.026;2022-12-16T14:15:18;27.25;25.00;20.50
69222;PMS7003;56514;51.816;-0.026;2022-12-16T14:25:54;32.25;23.75;21.75
69222;PMS7003;56514;51.816;-0.026;2022-12-16T14:28:59;36.25;35.75;28.25
69222;PMS7003;56514;51.816;-0.026;2022-12-16T14:32:25;31.75;31.75;23.25
69222;PMS7003;56514;51.816;-0.026;2022-12-16T14:35:30;36.00;36.00;28.75
69222;PMS7003;56514;51.816;-0.026;2022-12-16T14:38:37;31.67;31.67;22.67
69222;PMS7003;56514;51.816;-0.026;2022-12-16T14:41:41;31.25;31.25;25.25
69222;PMS7003;56514;51.816;-0.026;2022-12-16T14:44:44;32.75;31.00;23.50
69222;PMS7003;56514;51.816;-0.026;2022-12-16T14:47:49;35.75;34.25;24.25
69222;PMS7003;56514;51.816;-0.026;2022-12-16T14:50:53;42.50;42.50;29.75
69222;PMS7003;56514;51.816;-0.026;2022-12-16T14:54:08;42.00;37.25;28.00
69222;PMS7003;56514;51.816;-0.026;2022-12-16T15:00:27;34.50;30.75;22.25
69222;PMS7003;56514;51.816;-0.026;2022-12-16T15:03:33;29.25;29.25;22.50
69222;PMS7003;56514;51.816;-0.026;2022-12-16T15:06:41;28.75;28.75;22.25
69222;PMS7003;56514;51.816;-0.026;2022-12-16T15:09:48;40.25;40.25;27.50
69222;PMS7003;56514;51.816;-0.026;2022-12-16T15:12:55;37.25;37.25;27.75
69222;PMS7003;56514;51.816;-0.026;2022-12-16T15:15:59;34.50;31.75;24.25
69222;PMS7003;56514;51.816;-0.026;2022-12-16T15:19:03;26.00;24.75;18.75
69222;PMS7003;56514;51.816;-0.026;2022-12-16T15:22:14;30.25;30.25;23.00
69222;PMS7003;56514;51.816;-0.026;2022-12-16T15:25:23;28.75;28.75;21.00
69222;PMS7003;56514;51.816;-0.026;2022-12-16T15:31:43;28.75;28.75;22.00
69222;PMS7003;56514;51.816;-0.026;2022-12-16T15:34:47;27.33;27.33;21.33
69222;PMS7003;56514;51.816;-0.026;2022-12-16T15:37:51;33.00;27.00;19.00
69222;PMS7003;56514;51.816;-0.026;2022-12-16T15:40:55;21.67;21.67;16.67
69222;PMS7003;56514;51.816;-0.026;2022-12-16T15:43:58;25.00;24.00;16.67
69222;PMS7003;56514;51.816;-0.026;2022-12-16T15:47:03;27.67;27.67;19.00
69222;PMS7003;56514;51.816;-0.026;2022-12-16T15:50:11;30.50;30.50;19.50
69222;PMS7003;56514;51.816;-0.026;2022-12-16T15:56:42;25.00;22.50;18.50
69222;PMS7003;56514;51.816;-0.026;2022-12-16T15:59:58;23.50;23.00;18.50
69222;PMS7003;56514;51.816;-0.026;2022-12-16T16:03:02;20.33;18.67;15.00
69222;PMS7003;56514;51.816;-0.026;2022-12-16T16:06:12;16.33;16.33;11.67
69222;PMS7003;56514;51.816;-0.026;2022-12-16T16:12:29;13.50;13.50;12.25
69222;PMS7003;56514;51.816;-0.026;2022-12-16T16:15:33;18.75;18.75;12.75
69222;PMS7003;56514;51.816;-0.026;2022-12-16T16:18:37;18.00;18.00;14.75
69222;PMS7003;56514;51.816;-0.026;2022-12-16T16:21:42;16.00;16.00;12.00
69222;PMS7003;56514;51.816;-0.026;2022-12-16T16:24:46;15.75;14.25;11.00
69222;PMS7003;56514;51.816;-0.026;2022-12-16T16:27:49;18.75;18.75;12.75
69222;PMS7003;56514;51.816;-0.026;2022-12-16T16:30:53;15.75;15.75;15.00
69222;PMS7003;56514;51.816;-0.026;2022-12-16T16:33:56;15.00;15.00;12.25
69222;PMS7003;56514;51.816;-0.026;2022-12-16T16:37:00;14.75;14.75;14.00
69222;PMS7003;56514;51.816;-0.026;2022-12-16T16:43:34;13.50;13.00;9.75
69222;PMS7003;56514;51.816;-0.026;2022-12-16T16:46:41;24.25;24.25;16.50
69222;PMS7003;56514;51.816;-0.026;2022-12-16T16:49:45;30.50;30.50;20.50
69222;PMS7003;56514;51.816;-0.026;2022-12-16T16:52:49;33.25;32.00;25.25
69222;PMS7003;56514;51.816;-0.026;2022-12-16T16:55:53;33.50;33.50;24.75
69222;PMS7003;56514;51.816;-0.026;2022-12-16T16:58:57;26.25;26.25;19.50
69222;PMS7003;56514;51.816;-0.026;2022-12-16T17:02:01;25.00;25.00;22.00
69222;PMS7003;56514;51.816;-0.026;2022-12-16T17:05:05;23.75;21.25;17.75
69222;PMS7003;56514;51.816;-0.026;2022-12-16T17:08:09;16.00;16.00;12.50
69222;PMS7003;56514;51.816;-0.026;2022-12-16T17:11:17;23.00;17.25;15.50
69222;PMS7003;56514;51.816;-0.026;2022-12-16T17:14:22;15.50;15.50;13.50
69222;PMS7003;56514;51.816;-0.026;2022-12-16T17:17:26;16.00;16.00;15.00
69222;PMS7003;56514;51.816;-0.026;2022-12-16T17:20:29;18.25;18.25;15.25
69222;PMS7003;56514;51.816;-0.026;2022-12-16T17:23:33;8.00;8.00;7.25
69222;PMS7003;56514;51.816;-0.026;2022-12-16T17:26:43;17.00;17.00;10.75
69222;PMS7003;56514;51.816;-0.026;2022-12-16T17:29:47;17.00;17.00;12.75
69222;PMS7003;56514;51.816;-0.026;2022-12-16T17:32:51;17.50;17.50;14.50
69222;PMS7003;56514;51.816;-0.026;2022-12-16T17:35:55;20.75;20.00;15.00
69222;PMS7003;56514;51.816;-0.026;2022-12-16T17:38:58;15.50;15.50;12.00
69222;PMS7003;56514;51.816;-0.026;2022-12-16T17:42:02;25.25;23.50;18.00
69222;PMS7003;56514;51.816;-0.026;2022-12-16T17:45:05;31.00;25.00;18.00
69222;PMS7003;56514;51.816;-0.026;2022-12-16T17:48:10;21.50;21.50;15.00
69222;PMS7003;56514;51.816;-0.026;2022-12-16T17:51:14;21.50;20.50;16.50
69222;PMS7003;56514;51.816;-0.026;2022-12-16T17:54:17;20.25;20.25;16.75
69222;PMS7003;56514;51.816;-0.026;2022-12-16T17:57:21;23.00;23.00;14.50
69222;PMS7003;56514;51.816;-0.026;2022-12-16T18:00:25;14.50;14.50;12.25
69222;PMS7003;56514;51.816;-0.026;2022-12-16T18:03:28;11.00;11.00;9.25
69222;PMS7003;56514;51.816;-0.026;2022-12-16T18:06:36;16.25;12.25;9.25
69222;PMS7003;56514;51.816;-0.026;2022-12-16T18:09:39;12.50;12.50;9.00
69222;PMS7003;56514;51.816;-0.026;2022-12-16T18:12:43;11.00;11.00;8.75
69222;PMS7003;56514;51.816;-0.026;2022-12-16T18:15:51;17.50;15.00;11.00
69222;PMS7003;56514;51.816;-0.026;2022-12-16T18:18:55;18.50;17.00;13.00
69222;PMS7003;56514;51.816;-0.026;2022-12-16T18:21:59;13.00;11.00;9.50
69222;PMS7003;56514;51.816;-0.026;2022-12-16T18:25:03;19.25;18.75;15.50
69222;PMS7003;56514;51.816;-0.026;2022-12-16T18:28:07;24.50;22.50;18.50
69222;PMS7003;56514;51.816;-0.026;2022-12-16T18:31:12;26.75;25.50;19.00
69222;PMS7003;56514;51.816;-0.026;2022-12-16T18:34:16;20.25;20.25;16.00
69222;PMS7003;56514;51.816;-0.026;2022-12-16T18:37:20;22.75;22.75;17.75
69222;PMS7003;56514;51.816;-0.026;2022-12-16T18:40:24;35.25;31.75;21.50
69222;PMS7003;56514;51.816;-0.026;2022-12-16T18:43:27;27.00;26.00;20.00
69222;PMS7003;56514;51.816;-0.026;2022-12-16T18:46:31;33.25;28.25;19.75
69222;PMS7003;56514;51.816;-0.026;2022-12-16T18:49:37;37.00;28.50;19.50
69222;PMS7003;56514;51.816;-0.026;2022-12-16T18:52:40;34.00;34.00;23.25
69222;PMS7003;56514;51.816;-0.026;2022-12-16T18:55:44;31.25;29.75;23.00
69222;PMS7003;56514;51.816;-0.026;2022-12-16T18:58:48;29.00;29.00;18.00
69222;PMS7003;56514;51.816;-0.026;2022-12-16T19:01:52;38.00;33.50;21.75
69222;PMS7003;56514;51.816;-0.026;2022-12-16T19:04:56;28.75;28.75;20.25
69222;PMS7003;56514;51.816;-0.026;2022-12-16T19:08:00;32.75;28.00;22.00
69222;PMS7003;56514;51.816;-0.026;2022-12-16T19:11:04;19.00;19.00;16.25
69222;PMS7003;56514;51.816;-0.026;2022-12-16T19:14:08;25.25;25.25;18.75